createdAt,value
2023-04-03T00:00:56.496Z,500.00
2023-04-03T00:01:56.535Z,500.00
2023-04-03T00:02:56.487Z,500.00
2023-04-03T00:03:56.471Z,440.00
2023-04-03T00:04:56.480Z,469.00
2023-04-03T00:05:56.462Z,497.00
2023-04-03T00:06:56.500Z,497.00
2023-04-03T00:07:56.495Z,500.00
2023-04-03T00:08:56.512Z,506.00
2023-04-03T00:09:56.554Z,506.00
2023-04-03T00:10:56.564Z,486.00
2023-04-03T00:11:56.636Z,495.00
2023-04-03T00:12:56.614Z,492.00
2023-04-03T00:13:56.587Z,488.00
2023-04-03T00:14:56.589Z,560.00
2023-04-03T00:15:56.594Z,552.00
2023-04-03T00:16:56.736Z,552.00
2023-04-03T00:17:56.649Z,546.00
2023-04-03T00:18:56.653Z,525.00
2023-04-03T00:19:56.671Z,501.00
2023-04-03T00:20:56.695Z,569.00
2023-04-03T00:21:56.682Z,606.00
2023-04-03T00:22:56.695Z,633.00
2023-04-03T00:23:56.694Z,731.00
2023-04-03T00:24:56.687Z,734.00
2023-04-03T00:25:56.696Z,715.00
2023-04-03T00:26:56.716Z,632.00
2023-04-03T00:27:56.775Z,623.00
2023-04-03T00:28:56.765Z,547.00
2023-04-03T00:29:56.758Z,442.00
2023-04-03T00:30:56.852Z,400.00
2023-04-03T00:31:56.772Z,400.00
2023-04-03T00:32:56.799Z,469.00
2023-04-03T00:33:56.788Z,491.00
2023-04-03T00:34:56.794Z,531.00
2023-04-03T00:35:56.924Z,618.00
2023-04-03T00:36:56.976Z,698.00
2023-04-03T00:37:56.952Z,817.00
2023-04-03T00:38:57.001Z,772.00
2023-04-03T00:39:57.053Z,612.00
2023-04-03T00:40:57.150Z,527.00
2023-04-03T00:41:57.170Z,495.00
2023-04-03T00:42:57.194Z,508.00
2023-04-03T00:43:57.201Z,502.00
2023-04-03T00:44:57.256Z,500.00
2023-04-03T00:45:57.411Z,532.00
2023-04-03T00:46:57.338Z,577.00
2023-04-03T00:47:57.416Z,548.00
2023-04-03T00:48:57.427Z,593.00
2023-04-03T00:49:57.460Z,560.00
2023-04-03T00:50:57.498Z,538.00
2023-04-03T00:51:57.550Z,598.00
2023-04-03T00:52:57.609Z,616.00
2023-04-03T00:53:57.646Z,672.00
2023-04-03T00:54:57.641Z,798.00
2023-04-03T00:55:57.701Z,797.00
2023-04-03T00:56:57.771Z,923.00
2023-04-03T00:57:57.803Z,750.00
2023-04-03T00:58:57.829Z,585.00
2023-04-03T00:59:57.869Z,607.00
2023-04-03T01:00:58.054Z,669.00
2023-04-03T01:01:58.307Z,702.00
2023-04-03T01:02:58.048Z,750.00
2023-04-03T01:03:58.061Z,743.00
2023-04-03T01:04:58.065Z,785.00
2023-04-03T01:05:58.096Z,733.00
2023-04-03T01:06:58.173Z,698.00
2023-04-03T01:07:58.228Z,737.00
2023-04-03T01:08:58.306Z,669.00
2023-04-03T01:09:58.369Z,677.00
2023-04-03T01:10:59.416Z,747.00
2023-04-03T01:11:58.452Z,730.00
2023-04-03T01:12:58.532Z,834.00
2023-04-03T01:13:58.549Z,889.00
2023-04-03T01:14:58.627Z,808.00
2023-04-03T01:15:58.735Z,765.00
2023-04-03T01:16:58.747Z,738.00
2023-04-03T01:17:58.709Z,717.00
2023-04-03T01:18:58.731Z,679.00
2023-04-03T01:19:58.771Z,652.00
2023-04-03T01:20:58.835Z,639.00
2023-04-03T01:21:58.847Z,661.00
2023-04-03T01:22:58.872Z,610.00
2023-04-03T01:23:58.922Z,586.00
2023-04-03T01:24:58.984Z,639.00
2023-04-03T01:25:58.987Z,687.00
2023-04-03T01:26:59.024Z,786.00
2023-04-03T01:27:59.104Z,867.00
2023-04-03T01:28:59.199Z,916.00
2023-04-03T01:29:59.204Z,896.00
2023-04-03T01:30:59.276Z,953.00
2023-04-03T01:31:59.386Z,971.00
2023-04-03T01:32:59.421Z,1082.00
2023-04-03T01:33:59.453Z,1132.00
2023-04-03T01:34:59.463Z,1078.00
2023-04-03T01:35:59.545Z,1035.00
2023-04-03T01:36:59.555Z,652.00
2023-04-03T01:37:59.589Z,584.00
2023-04-03T01:38:59.688Z,619.00
2023-04-03T01:39:59.698Z,645.00
2023-04-03T01:40:59.755Z,567.00
2023-04-03T01:41:59.817Z,574.00
2023-04-03T01:42:59.841Z,633.00
2023-04-03T01:43:59.911Z,646.00
2023-04-03T01:44:59.944Z,642.00
2023-04-03T01:45:59.997Z,551.00
2023-04-03T01:47:00.033Z,522.00
2023-04-03T01:48:00.096Z,598.00
2023-04-03T01:49:00.144Z,701.00
2023-04-03T01:50:00.194Z,753.00
2023-04-03T01:51:00.196Z,864.00
2023-04-03T01:52:00.237Z,968.00
2023-04-03T01:53:00.254Z,982.00
2023-04-03T01:54:00.386Z,844.00
2023-04-03T01:55:00.401Z,861.00
2023-04-03T01:56:00.429Z,786.00
2023-04-03T01:57:00.483Z,882.00
2023-04-03T01:58:00.503Z,976.00
2023-04-03T01:59:00.593Z,857.00
2023-04-03T02:00:00.631Z,819.00
2023-04-03T02:01:00.677Z,744.00
2023-04-03T02:02:00.769Z,644.00
2023-04-03T02:03:00.797Z,552.00
2023-04-03T02:04:00.878Z,588.00
2023-04-03T02:05:00.859Z,641.00
2023-04-03T02:06:00.864Z,740.00
2023-04-03T02:07:00.891Z,546.00
2023-04-03T02:08:00.940Z,453.00
2023-04-03T02:09:00.997Z,488.00
2023-04-03T02:10:01.067Z,517.00
2023-04-03T02:11:01.092Z,500.00
2023-04-03T02:12:01.188Z,479.00
2023-04-03T02:13:01.194Z,440.00
2023-04-03T02:14:01.258Z,512.00
2023-04-03T02:15:01.291Z,607.00
2023-04-03T02:16:01.378Z,567.00
2023-04-03T02:17:01.654Z,638.00
2023-04-03T02:18:01.552Z,745.00
2023-04-03T02:19:01.501Z,710.00
2023-04-03T02:20:01.519Z,646.00
2023-04-03T02:21:01.547Z,650.00
2023-04-03T02:22:01.525Z,656.00
2023-04-03T02:23:01.521Z,709.00
2023-04-03T02:24:01.519Z,738.00
2023-04-03T02:25:01.547Z,635.00
2023-04-03T02:26:01.548Z,628.00
2023-04-03T02:27:01.590Z,655.00
2023-04-03T02:28:01.589Z,726.00
2023-04-03T02:29:01.612Z,868.00
2023-04-03T02:30:01.609Z,864.00
2023-04-03T02:31:01.647Z,813.00
2023-04-03T02:32:01.625Z,708.00
2023-04-03T02:33:01.742Z,779.00
2023-04-03T02:34:01.645Z,860.00
2023-04-03T02:35:01.645Z,926.00
2023-04-03T02:36:01.658Z,928.00
2023-04-03T02:37:01.657Z,872.00
2023-04-03T02:38:01.640Z,819.00
2023-04-03T02:39:01.656Z,805.00
2023-04-03T02:40:01.633Z,734.00
2023-04-03T02:41:01.628Z,698.00
2023-04-03T02:42:01.644Z,648.00
2023-04-03T02:43:01.691Z,648.00
2023-04-03T02:44:01.678Z,670.00
2023-04-03T02:45:01.690Z,731.00
2023-04-03T02:46:01.782Z,751.00
2023-04-03T02:47:01.745Z,770.00
2023-04-03T02:48:01.879Z,624.00
2023-04-03T02:49:01.785Z,554.00
2023-04-03T02:50:01.812Z,521.00
2023-04-03T02:51:01.801Z,559.00
2023-04-03T02:52:01.810Z,628.00
2023-04-03T02:53:01.911Z,770.00
2023-04-03T02:54:01.917Z,801.00
2023-04-03T02:55:01.997Z,706.00
2023-04-03T02:56:02.049Z,578.00
2023-04-03T02:57:02.172Z,519.00
2023-04-03T02:58:02.144Z,599.00
2023-04-03T02:59:02.184Z,641.00
2023-04-03T03:00:02.243Z,660.00
2023-04-03T03:01:02.298Z,784.00
2023-04-03T03:02:02.445Z,746.00
2023-04-03T03:03:02.469Z,807.00
2023-04-03T03:04:02.481Z,950.00
2023-04-03T03:05:02.611Z,858.00
2023-04-03T03:06:02.609Z,903.00
2023-04-03T03:07:02.633Z,1042.00
2023-04-03T03:08:02.660Z,942.00
2023-04-03T03:09:02.713Z,1002.00
2023-04-03T03:10:02.701Z,770.00
2023-04-03T03:11:02.738Z,698.00
2023-04-03T03:12:02.756Z,736.00
2023-04-03T03:13:02.816Z,810.00
2023-04-03T03:14:02.838Z,751.00
2023-04-03T03:15:02.843Z,659.00
2023-04-03T03:16:02.922Z,671.00
2023-04-03T03:17:02.927Z,713.00
2023-04-03T03:18:03.064Z,632.00
2023-04-03T03:19:03.079Z,677.00
2023-04-03T03:20:03.097Z,860.00
2023-04-03T03:21:03.141Z,961.00
2023-04-03T03:22:03.158Z,1019.00
2023-04-03T03:23:03.208Z,1043.00
2023-04-03T03:24:03.270Z,1114.00
2023-04-03T03:25:03.344Z,1356.00
2023-04-03T03:26:03.367Z,1287.00
2023-04-03T03:27:03.435Z,1162.00
2023-04-03T03:28:03.470Z,978.00
2023-04-03T03:29:03.513Z,897.00
2023-04-03T03:30:03.549Z,902.00
2023-04-03T03:31:03.687Z,1087.00
2023-04-03T03:32:03.647Z,1260.00
2023-04-03T03:33:03.758Z,1514.00
2023-04-03T03:34:03.747Z,1457.00
2023-04-03T03:35:03.751Z,1399.00
2023-04-03T03:36:03.848Z,1152.00
2023-04-03T03:37:03.806Z,1220.00
2023-04-03T03:38:03.876Z,1291.00
2023-04-03T03:39:03.924Z,1100.00
2023-04-03T03:40:03.928Z,1128.00
2023-04-03T03:41:03.964Z,1271.00
2023-04-03T03:42:03.988Z,1258.00
2023-04-03T03:43:04.039Z,1285.00
2023-04-03T03:44:04.105Z,1257.00
2023-04-03T03:45:04.146Z,1102.00
2023-04-03T03:46:04.183Z,872.00
2023-04-03T03:47:04.264Z,802.00
2023-04-03T03:48:04.329Z,752.00
2023-04-03T03:49:04.310Z,763.00
2023-04-03T03:50:04.327Z,782.00
2023-04-03T03:51:04.357Z,734.00
2023-04-03T03:52:04.398Z,737.00
2023-04-03T03:53:04.428Z,778.00
2023-04-03T03:54:04.438Z,947.00
2023-04-03T03:55:04.464Z,1069.00
2023-04-03T03:56:04.489Z,1006.00
2023-04-03T03:57:04.594Z,955.00
2023-04-03T03:58:04.601Z,919.00
2023-04-03T03:59:04.605Z,908.00
2023-04-03T04:00:04.623Z,815.00
2023-04-03T04:01:04.660Z,900.00
2023-04-03T04:02:04.745Z,803.00
2023-04-03T04:03:04.828Z,879.00
2023-04-03T04:04:04.865Z,845.00
2023-04-03T04:05:04.828Z,654.00
2023-04-03T04:06:04.862Z,754.00
2023-04-03T04:07:04.898Z,1004.00
2023-04-03T04:08:04.952Z,1017.00
2023-04-03T04:09:05.026Z,1022.00
2023-04-03T04:10:05.081Z,949.00
2023-04-03T04:11:05.154Z,880.00
2023-04-03T04:12:05.177Z,1057.00
2023-04-03T04:13:05.252Z,995.00
2023-04-03T04:14:05.292Z,1002.00
2023-04-03T04:15:05.312Z,858.00
2023-04-03T04:16:05.362Z,959.00
2023-04-03T04:17:05.432Z,767.00
2023-04-03T04:18:05.432Z,579.00
2023-04-03T04:19:07.573Z,490.00
2023-04-03T04:20:05.423Z,449.00
2023-04-03T04:21:05.437Z,458.00
2023-04-03T04:22:05.450Z,471.00
2023-04-03T04:23:05.464Z,551.00
2023-04-03T04:24:05.468Z,620.00
2023-04-03T04:25:05.453Z,645.00
2023-04-03T04:26:05.457Z,675.00
2023-04-03T04:27:05.440Z,774.00
2023-04-03T04:28:05.430Z,636.00
2023-04-03T04:29:05.481Z,571.00
2023-04-03T04:30:05.438Z,626.00
2023-04-03T04:31:05.500Z,665.00
2023-04-03T04:32:05.433Z,622.00
2023-04-03T04:33:05.530Z,604.00
2023-04-03T04:34:05.486Z,606.00
2023-04-03T04:35:05.548Z,658.00
2023-04-03T04:36:05.623Z,730.00
2023-04-03T04:37:05.641Z,905.00
2023-04-03T04:38:05.485Z,1297.00
2023-04-03T04:39:05.507Z,1227.00
2023-04-03T04:40:05.482Z,1141.00
2023-04-03T04:41:05.512Z,1098.00
2023-04-03T04:42:05.505Z,857.00
2023-04-03T04:43:05.540Z,713.00
2023-04-03T04:44:05.557Z,991.00
2023-04-03T04:45:05.589Z,911.00
2023-04-03T04:46:05.719Z,955.00
2023-04-03T04:47:05.592Z,983.00
2023-04-03T04:48:05.650Z,792.00
2023-04-03T04:49:05.690Z,783.00
2023-04-03T04:50:05.698Z,791.00
2023-04-03T04:51:05.720Z,686.00
2023-04-03T04:52:05.772Z,619.00
2023-04-03T04:53:05.843Z,635.00
2023-04-03T04:54:05.865Z,666.00
2023-04-03T04:55:05.935Z,774.00
2023-04-03T04:56:05.967Z,837.00
2023-04-03T04:57:06.052Z,791.00
2023-04-03T04:58:06.011Z,639.00
2023-04-03T04:59:06.022Z,599.00
2023-04-03T05:00:06.061Z,553.00
2023-04-03T05:01:06.130Z,618.00
2023-04-03T05:02:06.148Z,685.00
2023-04-03T05:03:06.305Z,817.00
2023-04-03T05:04:06.241Z,700.00
2023-04-03T05:05:06.385Z,656.00
2023-04-03T05:06:06.312Z,658.00
2023-04-03T05:07:06.331Z,780.00
2023-04-03T05:08:06.393Z,872.00
2023-04-03T05:09:06.434Z,1130.00
2023-04-03T05:10:06.497Z,978.00
2023-04-03T05:11:06.518Z,815.00
2023-04-03T05:12:06.577Z,708.00
2023-04-03T05:13:06.619Z,638.00
2023-04-03T05:14:06.692Z,620.00
2023-04-03T05:15:06.754Z,624.00
2023-04-03T05:16:06.833Z,709.00
2023-04-03T05:17:06.856Z,700.00
2023-04-03T05:18:06.930Z,790.00
2023-04-03T05:19:06.934Z,693.00
2023-04-03T05:20:06.989Z,667.00
2023-04-03T05:21:07.078Z,662.00
2023-04-03T05:22:07.166Z,725.00
2023-04-03T05:23:07.256Z,948.00
2023-04-03T05:24:07.328Z,806.00
2023-04-03T05:25:07.386Z,619.00
2023-04-03T05:26:07.460Z,641.00
2023-04-03T05:27:07.498Z,724.00
2023-04-03T05:28:07.540Z,645.00
2023-04-03T05:29:07.577Z,720.00
2023-04-03T05:30:07.633Z,699.00
2023-04-03T05:31:07.781Z,766.00
2023-04-03T05:32:07.772Z,871.00
2023-04-03T05:33:07.983Z,897.00
2023-04-03T05:34:07.909Z,703.00
2023-04-03T05:35:07.973Z,662.00
2023-04-03T05:36:08.065Z,886.00
2023-04-03T05:37:08.122Z,1064.00
2023-04-03T05:38:08.195Z,1365.00
2023-04-03T05:39:08.237Z,1283.00
2023-04-03T05:40:08.292Z,1190.00
2023-04-03T05:41:08.365Z,1075.00
2023-04-03T05:42:08.423Z,1018.00
2023-04-03T05:43:08.463Z,786.00
2023-04-03T05:44:08.506Z,699.00
2023-04-03T05:45:08.522Z,804.00
2023-04-03T05:46:08.576Z,1200.00
2023-04-03T05:47:08.618Z,857.00
2023-04-03T05:48:08.787Z,621.00
2023-04-03T05:49:08.776Z,583.00
2023-04-03T05:50:08.802Z,647.00
2023-04-03T05:51:08.839Z,639.00
2023-04-03T05:52:08.884Z,535.00
2023-04-03T05:53:08.923Z,488.00
2023-04-03T05:54:08.994Z,474.00
2023-04-03T05:55:09.001Z,493.00
2023-04-03T05:56:09.076Z,500.00
2023-04-03T05:57:09.265Z,518.00
2023-04-03T05:58:11.124Z,521.00
2023-04-03T05:59:09.219Z,483.00
2023-04-03T06:00:09.235Z,512.00
2023-04-03T06:01:09.271Z,542.00
2023-04-03T06:02:09.478Z,610.00
2023-04-03T06:03:09.439Z,666.00
2023-04-03T06:04:09.383Z,1175.00
2023-04-03T06:05:09.425Z,1380.00
2023-04-03T06:06:09.357Z,934.00
2023-04-03T06:07:09.381Z,514.00
2023-04-03T06:08:09.389Z,465.00
2023-04-03T06:09:09.402Z,465.00
2023-04-03T06:10:09.418Z,494.00
2023-04-03T06:11:09.429Z,502.00
2023-04-03T06:12:09.446Z,498.00
2023-04-03T06:13:09.472Z,712.00
2023-04-03T06:14:09.493Z,579.00
2023-04-03T06:15:09.531Z,501.00
2023-04-03T06:16:09.553Z,456.00
2023-04-03T06:17:09.624Z,492.00
2023-04-03T06:18:09.666Z,526.00
2023-04-03T06:19:09.627Z,862.00
2023-04-03T06:20:09.649Z,715.00
2023-04-03T06:21:09.730Z,669.00
2023-04-03T06:22:09.716Z,639.00
2023-04-03T06:23:09.739Z,615.00
2023-04-03T06:24:09.802Z,639.00
2023-04-03T06:25:09.784Z,1219.00
2023-04-03T06:26:09.780Z,1609.00
2023-04-03T06:27:09.795Z,1491.00
2023-04-03T06:28:09.805Z,1665.00
2023-04-03T06:29:09.806Z,1783.00
2023-04-03T06:30:09.804Z,1931.00
2023-04-03T06:31:09.854Z,1508.00
2023-04-03T06:32:09.854Z,1310.00
2023-04-03T06:33:09.891Z,1338.00
2023-04-03T06:34:09.961Z,1326.00
2023-04-03T06:35:09.855Z,1139.00
2023-04-03T06:36:09.874Z,1294.00
2023-04-03T06:37:09.934Z,1333.00
2023-04-03T06:38:09.952Z,1095.00
2023-04-03T06:39:09.858Z,1367.00
2023-04-03T06:40:09.873Z,1577.00
2023-04-03T06:41:09.881Z,1976.00
2023-04-03T06:42:09.937Z,2057.00
2023-04-03T06:43:09.934Z,1889.00
2023-04-03T06:44:09.958Z,1923.00
2023-04-03T06:45:10.020Z,1284.00
2023-04-03T06:46:10.150Z,1005.00
2023-04-03T06:47:10.131Z,634.00
2023-04-03T06:48:10.235Z,603.00
2023-04-03T06:49:10.140Z,572.00
2023-04-03T06:50:10.166Z,647.00
2023-04-03T06:51:10.180Z,941.00
2023-04-03T06:52:10.319Z,1140.00
2023-04-03T06:53:10.319Z,1228.00
2023-04-03T06:54:10.359Z,1436.00
2023-04-03T06:55:10.445Z,1443.00
2023-04-03T06:56:10.506Z,1615.00
2023-04-03T06:57:10.616Z,1493.00
2023-04-03T06:58:10.640Z,1637.00
2023-04-03T06:59:10.663Z,1669.00
2023-04-03T07:00:10.710Z,1669.00
2023-04-03T07:01:10.805Z,1593.00
2023-04-03T07:02:10.830Z,1180.00
2023-04-03T07:03:10.824Z,815.00
2023-04-03T07:04:10.899Z,1230.00
2023-04-03T07:05:10.865Z,1901.00
2023-04-03T07:06:10.886Z,2066.00
2023-04-03T07:07:11.229Z,2361.00
2023-04-03T07:08:10.977Z,2477.00
2023-04-03T07:09:11.043Z,2629.00
2023-04-03T07:10:11.012Z,2615.00
2023-04-03T07:11:11.024Z,2623.00
2023-04-03T07:12:11.065Z,2397.00
2023-04-03T07:13:11.122Z,1877.00
2023-04-03T07:14:11.130Z,1819.00
2023-04-03T07:15:11.176Z,1786.00
2023-04-03T07:16:11.217Z,1786.00
2023-04-03T07:17:11.692Z,1573.00
2023-04-03T07:18:11.425Z,1228.00
2023-04-03T07:19:11.359Z,1336.00
2023-04-03T07:20:11.436Z,1039.00
2023-04-03T07:21:11.502Z,1207.00
2023-04-03T07:22:11.562Z,1564.00
2023-04-03T07:23:11.637Z,1448.00
2023-04-03T07:24:15.075Z,1584.00
2023-04-03T07:25:11.804Z,1589.00
2023-04-03T07:26:11.726Z,1557.00
2023-04-03T07:27:11.750Z,1627.00
2023-04-03T07:28:11.779Z,1620.00
2023-04-03T07:29:11.805Z,1822.00
2023-04-03T07:30:11.782Z,2156.00
2023-04-03T07:31:11.827Z,2435.00
2023-04-03T07:32:11.799Z,2196.00
2023-04-03T07:33:11.819Z,2035.00
2023-04-03T07:34:11.902Z,1695.00
2023-04-03T07:35:11.813Z,1957.00
2023-04-03T07:36:11.884Z,2163.00
2023-04-03T07:37:11.838Z,2296.00
2023-04-03T07:38:11.849Z,1982.00
2023-04-03T07:39:11.842Z,1921.00
2023-04-03T07:40:11.854Z,1682.00
2023-04-03T07:41:12.032Z,1794.00
2023-04-03T07:42:11.854Z,1740.00
2023-04-03T07:43:11.884Z,1532.00
2023-04-03T07:44:11.874Z,1407.00
2023-04-03T07:45:11.897Z,1303.00
2023-04-03T07:46:11.984Z,1135.00
2023-04-03T07:47:11.900Z,1140.00
2023-04-03T07:48:11.912Z,1037.00
2023-04-03T07:49:11.899Z,952.00
2023-04-03T07:50:11.923Z,717.00
2023-04-03T07:51:11.913Z,700.00
2023-04-03T07:52:11.905Z,667.00
2023-04-03T07:53:12.267Z,1299.00
2023-04-03T07:54:11.892Z,1739.00
2023-04-03T07:55:11.878Z,2590.00
2023-04-03T07:56:11.881Z,2479.00
2023-04-03T07:57:11.989Z,2262.00
2023-04-03T07:58:11.875Z,2326.00
2023-04-03T07:59:11.819Z,2399.00
2023-04-03T08:00:11.801Z,2139.00
2023-04-03T08:01:11.788Z,1860.00
2023-04-03T08:02:11.862Z,1605.00
2023-04-03T08:03:12.716Z,1341.00
2023-04-03T08:04:11.886Z,1155.00
2023-04-03T08:05:11.766Z,1400.00
2023-04-03T08:06:15.758Z,1386.00
2023-04-03T08:07:11.820Z,1305.00
2023-04-03T08:08:11.876Z,1236.00
2023-04-03T08:09:11.914Z,1432.00
2023-04-03T08:10:12.264Z,1453.00
2023-04-03T08:11:11.975Z,1229.00
2023-04-03T08:12:12.035Z,1377.00
2023-04-03T08:13:12.121Z,1482.00
2023-04-03T08:14:12.331Z,1227.00
2023-04-03T08:15:12.191Z,1404.00
2023-04-03T08:16:12.242Z,1451.00
2023-04-03T08:17:12.246Z,1374.00
2023-04-03T08:18:12.284Z,1617.00
2023-04-03T08:19:22.270Z,2038.00
2023-04-03T08:20:12.343Z,1855.00
2023-04-03T08:21:12.316Z,1719.00
2023-04-03T08:22:12.330Z,1640.00
2023-04-03T08:23:12.340Z,1281.00
2023-04-03T08:24:12.337Z,803.00
2023-04-03T08:25:12.343Z,749.00
2023-04-03T08:26:12.351Z,665.00
2023-04-03T08:27:12.370Z,623.00
2023-04-03T08:28:12.422Z,740.00
2023-04-03T08:29:12.573Z,656.00
2023-04-03T08:30:13.492Z,580.00
2023-04-03T08:31:12.345Z,650.00
2023-04-03T08:32:12.326Z,1075.00
2023-04-03T08:33:12.424Z,1305.00
2023-04-03T08:34:12.294Z,1603.00
2023-04-03T08:35:12.314Z,1757.00
2023-04-03T08:36:12.340Z,1665.00
2023-04-03T08:37:12.333Z,1347.00
2023-04-03T08:38:12.381Z,1143.00
2023-04-03T08:39:12.352Z,1205.00
2023-04-03T08:40:12.351Z,1089.00
2023-04-03T08:41:12.354Z,1364.00
2023-04-03T08:42:12.420Z,1201.00
2023-04-03T08:43:12.535Z,1080.00
2023-04-03T08:44:12.510Z,1109.00
2023-04-03T08:45:12.705Z,1324.00
2023-04-03T08:46:12.622Z,1064.00
2023-04-03T08:47:12.588Z,1297.00
2023-04-03T08:48:12.673Z,1389.00
2023-04-03T08:49:13.985Z,1245.00
2023-04-03T08:50:12.709Z,1309.00
2023-04-03T08:51:12.895Z,1423.00
2023-04-03T08:52:12.764Z,1373.00
2023-04-03T08:53:12.846Z,1000.00
2023-04-03T08:54:12.870Z,910.00
2023-04-03T08:55:12.918Z,989.00
2023-04-03T08:56:12.941Z,928.00
2023-04-03T08:57:13.048Z,1051.00
2023-04-03T08:58:13.013Z,1251.00
2023-04-03T08:59:13.000Z,2007.00
2023-04-03T09:00:13.016Z,1739.00
2023-04-03T09:01:13.160Z,1472.00
2023-04-03T09:02:13.064Z,1505.00
2023-04-03T09:03:13.257Z,794.00
2023-04-03T09:04:13.226Z,408.00
2023-04-03T09:05:13.123Z,400.00
2023-04-03T09:06:13.170Z,496.00
2023-04-03T09:07:13.193Z,548.00
2023-04-03T09:08:13.219Z,600.00
2023-04-03T09:09:13.300Z,463.00
2023-04-03T09:10:13.323Z,420.00
2023-04-03T09:11:13.325Z,400.00
2023-04-03T09:12:13.340Z,503.00
2023-04-03T09:13:13.321Z,589.00
2023-04-03T09:14:13.333Z,645.00
2023-04-03T09:15:13.348Z,568.00
2023-04-03T09:16:13.484Z,473.00
2023-04-03T09:17:13.535Z,498.00
2023-04-03T09:18:13.439Z,472.00
2023-04-03T09:19:13.460Z,400.00
2023-04-03T09:20:13.429Z,400.00
2023-04-03T09:21:13.442Z,528.00
2023-04-03T09:22:13.464Z,837.00
2023-04-03T09:23:13.502Z,882.00
2023-04-03T09:24:13.546Z,1054.00
2023-04-03T09:25:13.584Z,1223.00
2023-04-03T09:26:13.595Z,1319.00
2023-04-03T09:27:13.641Z,1414.00
2023-04-03T09:28:13.639Z,1302.00
2023-04-03T09:29:13.658Z,1048.00
2023-04-03T09:30:13.609Z,1023.00
2023-04-03T09:31:13.657Z,847.00
2023-04-03T09:32:13.677Z,663.00
2023-04-03T09:33:13.891Z,795.00
2023-04-03T09:34:13.803Z,1009.00
2023-04-03T09:35:20.752Z,823.00
2023-04-03T09:36:13.797Z,812.00
2023-04-03T09:37:13.752Z,734.00
2023-04-03T09:38:13.729Z,711.00
2023-04-03T09:39:13.712Z,713.00
2023-04-03T09:40:13.688Z,583.00
2023-04-03T09:41:13.659Z,492.00
2023-04-03T09:42:13.635Z,450.00
2023-04-03T09:43:13.618Z,400.00
2023-04-03T09:44:13.594Z,509.00
2023-04-03T09:45:13.576Z,557.00
2023-04-03T09:46:13.611Z,508.00
2023-04-03T09:47:13.564Z,506.00
2023-04-03T09:48:16.270Z,631.00
2023-04-03T09:49:13.623Z,631.00
2023-04-03T09:50:13.469Z,641.00
2023-04-03T09:51:13.449Z,546.00
2023-04-03T09:52:13.420Z,400.00
2023-04-03T09:53:13.390Z,400.00
2023-04-03T09:54:13.441Z,400.00
2023-04-03T09:55:13.352Z,442.00
2023-04-03T09:56:13.322Z,450.00
2023-04-03T09:57:13.368Z,428.00
2023-04-03T09:58:13.315Z,465.00
2023-04-03T09:59:13.274Z,400.00
2023-04-03T10:00:13.253Z,400.00
2023-04-03T10:01:13.283Z,400.00
2023-04-03T10:02:13.205Z,400.00
2023-04-03T10:03:13.224Z,400.00
2023-04-03T10:04:13.255Z,400.00
2023-04-03T10:05:13.300Z,550.00
2023-04-03T10:06:13.101Z,574.00
2023-04-03T10:07:13.066Z,501.00
2023-04-03T10:08:13.035Z,664.00
2023-04-03T10:09:13.023Z,1213.00
2023-04-03T10:10:12.955Z,400.00
2023-04-03T10:11:12.941Z,400.00
2023-04-03T10:12:12.916Z,400.00
2023-04-03T10:13:20.219Z,400.00
2023-04-03T10:14:12.831Z,402.00
2023-04-03T10:15:12.817Z,414.00
2023-04-03T10:16:12.832Z,400.00
2023-04-03T10:17:12.769Z,400.00
2023-04-03T10:18:23.964Z,400.00
2023-04-03T10:19:12.748Z,400.00
2023-04-03T10:20:12.742Z,400.00
2023-04-03T10:21:26.564Z,400.00
2023-04-03T10:22:12.732Z,400.00
2023-04-03T10:23:12.712Z,400.00
2023-04-03T10:24:12.697Z,400.00
2023-04-03T10:25:12.681Z,400.00
2023-04-03T10:26:14.585Z,400.00
2023-04-03T10:27:12.662Z,400.00
2023-04-03T10:28:12.642Z,400.00
2023-04-03T10:29:12.585Z,400.00
2023-04-03T10:30:12.559Z,400.00
2023-04-03T10:31:12.701Z,400.00
2023-04-03T10:32:12.537Z,400.00
2023-04-03T10:33:12.503Z,400.00
2023-04-03T10:34:12.486Z,400.00
2023-04-03T10:35:12.468Z,400.00
2023-04-03T10:36:12.458Z,400.00
2023-04-03T10:37:12.530Z,400.00
2023-04-03T10:38:12.376Z,400.00
2023-04-03T10:39:12.377Z,400.00
2023-04-03T10:40:12.345Z,400.00
2023-04-03T10:41:12.326Z,400.00
2023-04-03T10:42:17.112Z,400.00
2023-04-03T10:43:12.270Z,400.00
2023-04-03T10:44:12.337Z,400.00
2023-04-03T10:45:12.233Z,400.00
2023-04-03T10:46:12.256Z,400.00
2023-04-03T10:47:12.139Z,400.00
2023-04-03T10:48:12.111Z,400.00
2023-04-03T10:49:12.044Z,400.00
2023-04-03T10:50:12.031Z,400.00
2023-04-03T10:51:11.994Z,400.00
2023-04-03T10:52:11.963Z,400.00
2023-04-03T10:53:12.050Z,400.00
2023-04-03T10:54:11.892Z,475.00
2023-04-03T10:55:11.846Z,634.00
2023-04-03T10:56:11.817Z,774.00
2023-04-03T10:57:13.605Z,687.00
2023-04-03T10:58:12.547Z,494.00
2023-04-03T10:59:11.722Z,438.00
2023-04-03T11:00:11.682Z,400.00
2023-04-03T11:01:11.683Z,400.00
2023-04-03T11:02:11.586Z,400.00
2023-04-03T11:03:11.704Z,480.00
2023-04-03T11:04:11.635Z,556.00
2023-04-03T11:05:11.454Z,542.00
2023-04-03T11:06:11.349Z,613.00
2023-04-03T11:07:11.309Z,465.00
2023-04-03T11:08:11.370Z,436.00
2023-04-03T11:09:11.325Z,528.00
2023-04-03T11:10:11.127Z,521.00
2023-04-03T11:11:11.061Z,491.00
2023-04-03T11:12:10.982Z,481.00
2023-04-03T11:13:10.915Z,485.00
2023-04-03T11:14:10.841Z,481.00
2023-04-03T11:15:11.220Z,468.00
2023-04-03T11:16:10.731Z,511.00
2023-04-03T11:17:10.613Z,549.00
2023-04-03T11:18:11.844Z,567.00
2023-04-03T11:19:10.481Z,503.00
2023-04-03T11:20:10.451Z,400.00
2023-04-03T11:21:10.432Z,494.00
2023-04-03T11:22:10.429Z,609.00
2023-04-03T11:23:10.412Z,668.00
2023-04-03T11:24:10.400Z,748.00
2023-04-03T11:25:10.500Z,1690.00
2023-04-03T11:26:11.178Z,1785.00
2023-04-03T11:27:10.268Z,1688.00
2023-04-03T11:28:10.206Z,1228.00
2023-04-03T11:29:11.243Z,590.00
2023-04-03T11:30:10.110Z,400.00
2023-04-03T11:31:10.080Z,467.00
2023-04-03T11:32:09.990Z,400.00
2023-04-03T11:33:09.920Z,568.00
2023-04-03T11:34:09.859Z,996.00
2023-04-03T11:35:09.794Z,540.00
2023-04-03T11:36:19.048Z,401.00
2023-04-03T11:37:09.679Z,403.00
2023-04-03T11:38:09.616Z,415.00
2023-04-03T11:39:09.574Z,456.00
2023-04-03T11:40:09.525Z,610.00
2023-04-03T11:41:09.616Z,665.00
2023-04-03T11:42:13.151Z,529.00
2023-04-03T11:43:09.390Z,480.00
2023-04-03T11:44:09.314Z,529.00
2023-04-03T11:45:09.253Z,563.00
2023-04-03T11:46:09.207Z,620.00
2023-04-03T11:47:09.414Z,845.00
2023-04-03T11:48:21.220Z,808.00
2023-04-03T11:49:09.038Z,816.00
2023-04-03T11:50:08.975Z,875.00
2023-04-03T11:51:08.909Z,742.00
2023-04-03T11:52:08.849Z,1080.00
2023-04-03T11:53:08.786Z,1696.00
2023-04-03T11:54:08.723Z,2794.00
2023-04-03T11:55:08.649Z,2719.00
2023-04-03T11:56:08.605Z,2846.00
2023-04-03T11:57:08.686Z,3372.00
2023-04-03T11:58:08.432Z,3288.00
2023-04-03T11:59:08.367Z,2287.00
2023-04-03T12:00:08.284Z,627.00
2023-04-03T12:01:08.229Z,400.00
2023-04-03T12:02:08.224Z,400.00
2023-04-03T12:03:08.262Z,400.00
2023-04-03T12:04:08.228Z,400.00
2023-04-03T12:05:08.063Z,400.00
2023-04-03T12:06:08.188Z,400.00
2023-04-03T12:07:07.967Z,505.00
2023-04-03T12:08:07.926Z,652.00
2023-04-03T12:09:08.717Z,931.00
2023-04-03T12:10:08.701Z,841.00
2023-04-03T12:11:07.782Z,1165.00
2023-04-03T12:12:07.722Z,1526.00
2023-04-03T12:13:07.803Z,1355.00
2023-04-03T12:14:07.637Z,879.00
2023-04-03T12:15:07.588Z,400.00
2023-04-03T12:16:07.539Z,400.00
2023-04-03T12:17:07.523Z,400.00
2023-04-03T12:18:07.506Z,469.00
2023-04-03T12:19:07.373Z,453.00
2023-04-03T12:20:07.312Z,407.00
2023-04-03T12:21:07.257Z,400.00
2023-04-03T12:22:07.181Z,400.00